Time;durP1;ratioP1;P1;durP2;ratioP2;P2;SDS_P1;SDS_P2;PMS_P1;PMS_P2;Temp;Humidity;BMP_temperature;BMP_pressure;BME280_temperature;BME280_humidity;BME280_pressure;Samples;Min_cycle;Max_cycle;Signal;HPM_P1;HPM_P2
2022/05/12 00:02:18;;;;;;;10.13;8.63;;;13.90;99.90;;;;;;5091299;28;20067;-78
2022/05/12 00:04:44;;;;;;;11.80;8.30;;;13.90;99.90;;;;;;5092686;28;20089;-78
2022/05/12 00:07:09;;;;;;;9.18;7.45;;;13.80;99.90;;;;;;5091185;28;20999;-78
2022/05/12 00:09:36;;;;;;;8.15;7.18;;;13.80;99.90;;;;;;5091328;28;20028;-78
2022/05/12 00:12:02;;;;;;;7.90;7.10;;;13.80;99.90;;;;;;5091223;28;20031;-78
2022/05/12 00:14:27;;;;;;;10.57;8.70;;;13.70;99.90;;;;;;5092555;28;20036;-78
2022/05/12 00:16:56;;;;;;;10.18;7.30;;;13.70;99.90;;;;;;5092132;28;20047;-77
2022/05/12 00:19:24;;;;;;;8.88;6.55;;;13.60;99.90;;;;;;5091344;28;20145;-77
2022/05/12 00:21:49;;;;;;;8.07;7.10;;;13.60;99.90;;;;;;5092380;28;20028;-78
2022/05/12 00:24:16;;;;;;;12.73;7.35;;;13.60;99.90;;;;;;5092238;28;20080;-78
2022/05/12 00:26:43;;;;;;;10.43;7.93;;;13.50;99.90;;;;;;5091095;28;20031;-78
2022/05/12 00:29:09;;;;;;;7.25;6.55;;;13.50;99.90;;;;;;5092197;28;20031;-78
2022/05/12 00:31:37;;;;;;;8.85;6.85;;;13.40;99.90;;;;;;5090997;28;20024;-78
2022/05/12 00:34:07;;;;;;;7.88;7.05;;;13.40;99.90;;;;;;5092230;28;20024;-78
2022/05/12 00:36:34;;;;;;;8.65;6.97;;;13.40;99.90;;;;;;5091897;28;20039;-78
2022/05/12 00:38:59;;;;;;;12.40;7.68;;;13.40;99.90;;;;;;5092125;28;20467;-77
2022/05/12 00:41:25;;;;;;;7.50;6.63;;;13.30;99.90;;;;;;5090813;28;20031;-78
2022/05/12 00:43:55;;;;;;;9.25;8.35;;;13.30;99.90;;;;;;5091969;28;20027;-77
2022/05/12 00:46:31;;;;;;;11.50;8.50;;;13.30;99.90;;;;;;5091973;28;20360;-78
2022/05/12 00:49:02;;;;;;;8.85;8.02;;;13.30;99.90;;;;;;5092137;28;20017;-78
2022/05/12 00:51:33;;;;;;;12.60;9.98;;;13.30;99.90;;;;;;5090554;28;20048;-78
2022/05/12 00:54:02;;;;;;;13.80;8.60;;;13.20;99.90;;;;;;5091785;28;20024;-78
2022/05/12 00:56:29;;;;;;;12.82;9.00;;;13.20;99.90;;;;;;5091820;28;20032;-77
2022/05/12 00:59:01;;;;;;;12.05;8.73;;;13.20;99.90;;;;;;5092026;28;20039;-77
2022/05/12 01:01:27;;;;;;;14.57;9.30;;;13.10;99.90;;;;;;5091899;28;20111;-78
2022/05/12 01:03:56;;;;;;;11.38;9.57;;;13.10;99.90;;;;;;5091842;28;20020;-78
2022/05/12 01:06:21;;;;;;;11.15;9.60;;;13.20;99.90;;;;;;5091717;28;20569;-78
2022/05/12 01:08:47;;;;;;;13.20;10.23;;;13.10;99.90;;;;;;5090499;28;20115;-78
2022/05/12 01:11:17;;;;;;;15.73;11.55;;;13.10;99.90;;;;;;5091877;28;20024;-78
2022/05/12 01:13:50;;;;;;;13.82;9.55;;;13.20;99.90;;;;;;5090469;28;20020;-78
2022/05/12 01:16:37;;;;;;;13.27;9.48;;;13.20;99.90;;;;;;5090240;28;20121;-77
2022/05/12 01:19:05;;;;;;;10.13;8.40;;;13.20;99.90;;;;;;5090414;28;20052;-78
2022/05/12 01:21:31;;;;;;;10.77;9.05;;;13.20;99.90;;;;;;5091741;28;20024;-78
2022/05/12 01:23:56;;;;;;;10.77;9.70;;;13.10;99.90;;;;;;5091665;28;20073;-78
2022/05/12 01:26:22;;;;;;;12.65;9.32;;;13.10;99.90;;;;;;5091685;28;20039;-78
2022/05/12 01:28:49;;;;;;;11.32;8.95;;;13.20;99.90;;;;;;5091552;28;20024;-78
2022/05/12 01:31:21;;;;;;;13.40;9.30;;;13.10;99.90;;;;;;5091547;28;20482;-78
2022/05/12 01:33:46;;;;;;;9.80;8.65;;;13.10;99.90;;;;;;5091483;28;20021;-78
2022/05/12 01:36:12;;;;;;;9.32;8.30;;;13.00;99.90;;;;;;5090149;28;20047;-78
2022/05/12 01:38:38;;;;;;;13.38;8.55;;;13.10;99.90;;;;;;5091516;28;20367;-78
2022/05/12 01:41:03;;;;;;;10.93;8.50;;;13.10;99.90;;;;;;5091525;28;20360;-78
2022/05/12 01:43:29;;;;;;;11.82;9.10;;;13.10;99.90;;;;;;5091432;28;20021;-78
2022/05/12 01:45:54;;;;;;;8.90;8.00;;;13.10;99.90;;;;;;5091409;28;20486;-78
2022/05/12 01:48:20;;;;;;;14.35;9.05;;;13.00;99.90;;;;;;5091505;28;20566;-78
2022/05/12 01:50:47;;;;;;;11.20;8.52;;;13.00;99.90;;;;;;5090019;28;20567;-77
2022/05/12 01:53:15;;;;;;;11.43;8.65;;;13.00;99.90;;;;;;5091344;28;20639;-78
2022/05/12 01:55:43;;;;;;;12.38;8.35;;;13.00;99.90;;;;;;5095155;28;20024;-78
2022/05/12 01:58:09;;;;;;;9.90;7.90;;;13.00;99.90;;;;;;5094951;28;20499;-78
2022/05/12 02:00:35;;;;;;;9.48;7.38;;;12.90;99.90;;;;;;5095020;28;20082;-78
2022/05/12 02:03:01;;;;;;;9.25;8.35;;;12.90;99.90;;;;;;5094920;28;20055;-77
2022/05/12 02:05:34;;;;;;;12.43;8.25;;;12.90;99.90;;;;;;5095002;28;20024;-78
2022/05/12 02:08:00;;;;;;;8.70;7.28;;;12.90;99.90;;;;;;5094731;28;20066;-78
2022/05/12 02:10:29;;;;;;;9.35;7.90;;;12.80;99.90;;;;;;5093584;28;20139;-78
2022/05/12 02:12:56;;;;;;;9.48;8.18;;;12.80;99.90;;;;;;5094558;28;20077;-78
2022/05/12 02:15:22;;;;;;;10.35;8.13;;;12.80;99.90;;;;;;5094888;28;20039;-78
2022/05/12 02:17:49;;;;;;;7.75;6.97;;;12.70;99.90;;;;;;5094679;28;20016;-78
2022/05/12 02:20:17;;;;;;;10.90;7.78;;;12.60;99.90;;;;;;5094577;28;20020;-77
2022/05/12 02:22:43;;;;;;;8.45;7.50;;;12.60;99.90;;;;;;5094466;28;20055;-78
2022/05/12 02:25:09;;;;;;;9.88;7.22;;;12.60;99.90;;;;;;5094534;28;20075;-78
2022/05/12 02:27:36;;;;;;;7.78;6.35;;;12.60;99.90;;;;;;5093060;28;20023;-78
2022/05/12 02:30:03;;;;;;;11.15;7.18;;;12.50;99.90;;;;;;5093124;28;20024;-77
2022/05/12 02:32:29;;;;;;;8.27;6.15;;;12.50;99.90;;;;;;5094469;28;20467;-78
2022/05/12 02:34:56;;;;;;;13.40;7.05;;;12.50;99.90;;;;;;5094400;28;20071;-78
2022/05/12 02:37:21;;;;;;;8.23;6.85;;;12.40;99.90;;;;;;5094228;28;20032;-78
2022/05/12 02:39:48;;;;;;;8.90;7.72;;;12.40;99.90;;;;;;5094115;28;20485;-78
2022/05/12 02:42:13;;;;;;;9.45;7.70;;;12.40;99.90;;;;;;5094289;28;20115;-78
2022/05/12 02:44:39;;;;;;;9.77;7.30;;;12.40;99.90;;;;;;5094213;28;20104;-78
2022/05/12 02:47:07;;;;;;;9.68;6.88;;;12.40;99.90;;;;;;5092547;28;20023;-78
2022/05/12 02:49:33;;;;;;;7.88;7.00;;;12.40;99.90;;;;;;5094156;28;20027;-78
2022/05/12 02:51:59;;;;;;;7.97;7.18;;;12.40;99.90;;;;;;5094138;28;20491;-78
2022/05/12 02:54:25;;;;;;;13.35;7.57;;;12.40;99.90;;;;;;5093867;28;20036;-78
2022/05/12 02:56:54;;;;;;;13.05;8.70;;;12.30;99.90;;;;;;5092590;28;20089;-78
2022/05/12 02:59:20;;;;;;;9.75;7.97;;;12.30;99.90;;;;;;5093844;28;20065;-78
2022/05/12 03:01:45;;;;;;;11.35;8.25;;;12.30;99.90;;;;;;5093809;28;20021;-78
2022/05/12 03:04:11;;;;;;;9.77;7.60;;;12.40;99.90;;;;;;5091643;28;20024;-78
2022/05/12 03:06:37;;;;;;;10.40;7.97;;;12.40;99.90;;;;;;5092026;28;20096;-78
2022/05/12 03:09:03;;;;;;;11.32;7.97;;;12.30;99.90;;;;;;5093677;28;20463;-77
2022/05/12 03:11:29;;;;;;;9.85;7.80;;;12.30;99.90;;;;;;5093645;28;20028;-78
2022/05/12 03:13:55;;;;;;;10.27;7.63;;;12.30;99.90;;;;;;5092249;28;20481;-77
2022/05/12 03:16:22;;;;;;;10.13;8.57;;;12.40;99.90;;;;;;5093597;28;20051;-78
2022/05/12 03:18:51;;;;;;;9.48;8.05;;;12.30;99.90;;;;;;5093501;28;20047;-78
2022/05/12 03:21:17;;;;;;;10.90;8.75;;;12.30;99.90;;;;;;5093471;28;20027;-78
2022/05/12 03:23:43;;;;;;;11.50;8.80;;;12.30;99.90;;;;;;5093402;28;20047;-78
2022/05/12 03:26:09;;;;;;;14.07;8.18;;;12.30;99.90;;;;;;5093180;28;20463;-77
2022/05/12 03:28:35;;;;;;;9.32;8.30;;;12.30;99.90;;;;;;5093417;28;20065;-78
2022/05/12 03:31:01;;;;;;;12.65;8.90;;;12.20;99.90;;;;;;5093258;28;20028;-77
2022/05/12 03:33:27;;;;;;;11.90;8.82;;;12.20;99.90;;;;;;5091764;28;20020;-78
2022/05/12 03:35:52;;;;;;;9.23;8.27;;;12.30;99.90;;;;;;5093114;28;20118;-78
2022/05/12 03:38:19;;;;;;;10.52;9.02;;;12.30;99.90;;;;;;5093555;28;20020;-77
2022/05/12 03:40:45;;;;;;;13.20;9.35;;;12.30;99.90;;;;;;5093259;28;20099;-78
2022/05/12 03:43:11;;;;;;;11.40;9.15;;;12.30;99.90;;;;;;5093081;28;20115;-77
2022/05/12 03:45:36;;;;;;;16.33;9.25;;;12.30;99.90;;;;;;5092931;28;20468;-77
2022/05/12 03:48:03;;;;;;;13.35;9.63;;;12.30;99.90;;;;;;5093001;28;20473;-77
2022/05/12 03:50:29;;;;;;;12.93;10.13;;;12.30;99.90;;;;;;5092660;28;20044;-77
2022/05/12 03:52:55;;;;;;;14.48;9.13;;;12.30;99.90;;;;;;5092703;28;20097;-78
2022/05/12 03:55:26;;;;;;;11.57;9.48;;;12.30;99.90;;;;;;5092736;28;20028;-78
2022/05/12 03:57:55;;;;;;;11.05;9.23;;;12.30;99.90;;;;;;5092589;28;20028;-78
2022/05/12 04:00:25;;;;;;;13.90;10.10;;;12.30;99.90;;;;;;5092782;28;20027;-77
2022/05/12 04:02:52;;;;;;;11.75;9.60;;;12.30;99.90;;;;;;5091397;28;20120;-78
2022/05/12 04:05:20;;;;;;;12.75;9.55;;;12.30;99.90;;;;;;5092554;28;20103;-78
2022/05/12 04:07:46;;;;;;;12.07;10.13;;;12.40;99.90;;;;;;5091106;28;20467;-77
2022/05/12 04:10:13;;;;;;;12.10;10.38;;;12.40;99.90;;;;;;5092529;28;20035;-78
2022/05/12 04:12:39;;;;;;;14.75;10.45;;;12.40;99.90;;;;;;5092490;28;20016;-78
2022/05/12 04:15:05;;;;;;;11.50;10.05;;;12.40;99.90;;;;;;5091166;28;20578;-78
2022/05/12 04:17:31;;;;;;;11.90;8.82;;;12.50;99.90;;;;;;5091975;28;20024;-77
2022/05/12 04:20:00;;;;;;;14.65;10.32;;;12.50;99.90;;;;;;5092515;28;20477;-77
2022/05/12 04:22:25;;;;;;;12.05;9.93;;;12.50;99.90;;;;;;5092413;28;20109;-77
2022/05/12 04:24:51;;;;;;;16.13;10.18;;;12.60;99.90;;;;;;5092394;28;20475;-77
2022/05/12 04:27:17;;;;;;;12.40;10.95;;;12.50;99.90;;;;;;5092231;28;20028;-78
2022/05/12 04:29:43;;;;;;;14.80;13.20;;;12.60;99.90;;;;;;5091141;28;20028;-77
2022/05/12 04:32:10;;;;;;;12.32;11.02;;;12.60;99.90;;;;;;5092561;28;20345;-77
2022/05/12 04:37:29;;;;;;;15.57;11.15;;;12.80;99.90;;;;;;5094408;28;20379;-83
2022/05/12 04:39:55;;;;;;;14.63;11.73;;;13.40;99.90;;;;;;5091368;28;20117;-82
2022/05/12 04:42:20;;;;;;;13.50;11.55;;;14.00;99.90;;;;;;5091269;28;20087;-82
2022/05/12 04:44:46;;;;;;;11.32;9.93;;;14.30;99.90;;;;;;5094197;28;20047;-83
2022/05/12 04:47:12;;;;;;;14.68;11.20;;;14.70;99.90;;;;;;5095469;28;20020;-81
2022/05/12 04:49:37;;;;;;;14.15;10.77;;;15.10;99.90;;;;;;5091344;28;20055;-82
2022/05/12 04:52:04;;;;;;;10.45;9.30;;;15.30;99.90;;;;;;5092311;28;20131;-81
2022/05/12 04:54:29;;;;;;;13.18;10.57;;;15.60;99.90;;;;;;5092392;28;20482;-82
2022/05/12 04:56:56;;;;;;;15.93;11.35;;;15.80;99.90;;;;;;5092510;28;20040;-82
2022/05/12 04:59:22;;;;;;;14.35;11.05;;;16.00;99.90;;;;;;5092277;28;20016;-81
2022/05/12 05:01:48;;;;;;;12.52;10.38;;;16.00;99.90;;;;;;5091084;28;20019;-82
2022/05/12 05:04:13;;;;;;;10.77;8.70;;;16.20;99.90;;;;;;5091101;28;20020;-83
2022/05/12 05:06:39;;;;;;;10.50;8.35;;;16.30;99.90;;;;;;5090685;28;20023;-81
2022/05/12 05:09:06;;;;;;;11.05;9.52;;;16.20;99.90;;;;;;5092265;28;20028;-81
2022/05/12 05:11:33;;;;;;;11.13;9.75;;;16.30;99.90;;;;;;5090847;28;20054;-81
2022/05/12 05:13:59;;;;;;;14.45;10.15;;;16.40;99.90;;;;;;5090733;28;20016;-81
2022/05/12 05:16:25;;;;;;;12.80;9.45;;;16.50;99.90;;;;;;5090783;28;20436;-82
2022/05/12 05:18:50;;;;;;;13.50;9.77;;;16.50;99.90;;;;;;5092128;28;20024;-81
2022/05/12 05:21:16;;;;;;;10.20;9.15;;;16.40;99.90;;;;;;5092244;28;20081;-80
2022/05/12 05:23:42;;;;;;;14.88;9.27;;;16.20;99.90;;;;;;5090429;28;20020;-80
2022/05/12 05:26:11;;;;;;;12.55;9.55;;;16.20;99.90;;;;;;5090406;28;20108;-81
2022/05/12 05:28:37;;;;;;;14.02;9.30;;;16.10;99.90;;;;;;5092538;28;20375;-81
2022/05/12 05:31:04;;;;;;;9.63;8.63;;;16.20;99.90;;;;;;5095912;28;20027;-79
2022/05/12 05:33:30;;;;;;;13.85;9.68;;;16.20;99.90;;;;;;5096194;28;20035;-79
2022/05/12 05:35:57;;;;;;;12.85;10.52;;;16.40;99.90;;;;;;5096497;28;20032;-80
2022/05/12 05:38:23;;;;;;;14.85;10.07;;;16.50;99.90;;;;;;5094540;28;20024;-81
2022/05/12 05:40:48;;;;;;;14.20;9.90;;;16.50;99.90;;;;;;5095825;28;20028;-81
2022/05/12 05:43:14;;;;;;;10.13;9.02;;;16.70;99.90;;;;;;5095800;28;20027;-87
2022/05/12 05:45:41;;;;;;;13.18;9.90;;;16.80;99.90;;;;;;5094420;28;20082;-80
2022/05/12 05:48:07;;;;;;;13.05;10.32;;;17.00;99.90;;;;;;5095491;28;20020;-80
2022/05/12 05:53:26;;;;;;;10.50;9.50;;;17.30;99.90;;;;;;5095634;28;20038;-77
2022/05/12 05:55:58;;;;;;;27.70;20.70;;;17.40;99.90;;;;;;5094934;28;20085;-78
2022/05/12 05:58:25;;;;;;;21.83;15.38;;;17.50;99.90;;;;;;5094781;28;20073;-78
2022/05/12 06:00:51;;;;;;;12.98;10.70;;;17.60;99.90;;;;;;5094203;28;20092;-78
2022/05/12 06:03:17;;;;;;;13.27;9.68;;;17.80;99.90;;;;;;5095121;28;20062;-78
2022/05/12 06:05:43;;;;;;;14.32;9.68;;;18.00;99.90;;;;;;5095055;28;20023;-78
2022/05/12 06:08:11;;;;;;;16.08;10.13;;;18.20;99.90;;;;;;5094672;28;20474;-77
2022/05/12 06:10:37;;;;;;;12.55;9.38;;;18.40;99.90;;;;;;5095055;28;20028;-78
2022/05/12 06:13:03;;;;;;;18.15;10.73;;;18.60;99.90;;;;;;5095133;28;20043;-78
2022/05/12 06:15:29;;;;;;;12.85;9.82;;;18.80;99.90;;;;;;5095034;28;20062;-78
2022/05/12 06:17:55;;;;;;;15.27;10.70;;;19.00;99.90;;;;;;5094614;28;20364;-78
2022/05/12 06:20:22;;;;;;;11.23;8.80;;;19.20;99.90;;;;;;5093117;28;20035;-78
2022/05/12 06:22:48;;;;;;;12.73;8.68;;;19.40;99.90;;;;;;5094489;28;20079;-77
2022/05/12 06:25:16;;;;;;;12.18;8.82;;;19.50;99.90;;;;;;5093155;28;20112;-78
2022/05/12 06:27:44;;;;;;;16.95;8.73;;;19.70;99.90;;;;;;5092947;28;20479;-77
2022/05/12 06:30:11;;;;;;;11.20;8.93;;;19.90;99.90;;;;;;5092943;28;20027;-77
2022/05/12 06:32:38;;;;;;;11.00;9.30;;;20.10;99.90;;;;;;5095006;28;20024;-78
2022/05/12 06:35:05;;;;;;;10.40;8.15;;;20.30;99.90;;;;;;5094792;28;20095;-79
2022/05/12 06:37:32;;;;;;;9.77;8.55;;;20.40;99.90;;;;;;5093123;28;20043;-78
2022/05/12 06:39:57;;;;;;;9.30;8.38;;;20.50;99.90;;;;;;5094113;28;20039;-78
2022/05/12 06:42:23;;;;;;;11.35;9.15;;;20.70;99.90;;;;;;5094035;28;20032;-78
2022/05/12 06:44:50;;;;;;;9.32;8.43;;;20.90;99.90;;;;;;5092272;28;20024;-79
2022/05/12 06:47:16;;;;;;;10.63;8.45;;;21.10;99.90;;;;;;5094145;28;20478;-79
2022/05/12 06:49:42;;;;;;;13.95;8.13;;;21.20;99.50;;;;;;5092478;28;20039;-79
2022/05/12 06:52:09;;;;;;;10.05;8.02;;;21.40;97.20;;;;;;5092810;28;20044;-80
2022/05/12 06:54:36;;;;;;;11.13;7.47;;;21.50;96.20;;;;;;5093942;28;20053;-79
2022/05/12 06:57:03;;;;;;;21.65;9.45;;;21.50;96.20;;;;;;5094010;28;20028;-79
2022/05/12 06:59:29;;;;;;;7.03;6.30;;;21.70;95.40;;;;;;5092646;28;20028;-80
2022/05/12 07:01:54;;;;;;;10.57;7.65;;;21.80;94.90;;;;;;5092605;28;20024;-79
2022/05/12 07:04:20;;;;;;;7.28;6.53;;;22.00;94.60;;;;;;5092803;28;20020;-79
2022/05/12 07:06:47;;;;;;;7.63;6.63;;;22.10;94.40;;;;;;5093676;28;20047;-79
2022/05/12 07:09:13;;;;;;;16.35;7.38;;;22.20;93.60;;;;;;5093813;28;20032;-79
2022/05/12 07:11:39;;;;;;;10.63;6.60;;;22.40;93.20;;;;;;5092678;28;20027;-79
2022/05/12 07:14:05;;;;;;;10.32;7.72;;;22.40;92.50;;;;;;5093771;28;20478;-79
2022/05/12 07:16:30;;;;;;;8.77;7.88;;;22.60;93.30;;;;;;5093587;28;20036;-79
2022/05/12 07:18:56;;;;;;;10.30;7.25;;;22.80;92.40;;;;;;5092406;28;20429;-79
2022/05/12 07:27:04;;;;;;;7.25;6.47;;;23.30;90.20;;;;;;5093794;28;20043;-80
2022/05/12 07:29:34;;;;;;;9.00;6.20;;;23.40;90.30;;;;;;5092059;28;20024;-79
2022/05/12 07:31:59;;;;;;;6.35;5.75;;;23.60;89.90;;;;;;5093533;28;20027;-80
2022/05/12 07:34:25;;;;;;;10.38;6.28;;;23.70;88.70;;;;;;5093067;28;20024;-79
2022/05/12 07:36:52;;;;;;;8.88;5.53;;;23.90;87.90;;;;;;5092376;28;20035;-80
2022/05/12 07:39:27;;;;;;;10.55;6.80;;;24.10;86.30;;;;;;5092666;28;20024;-82
2022/05/12 07:41:53;;;;;;;6.30;5.70;;;24.20;85.10;;;;;;5092288;28;20383;-80
2022/05/12 07:44:20;;;;;;;11.70;6.63;;;24.30;89.00;;;;;;5092195;28;20085;-79
2022/05/12 07:46:47;;;;;;;8.68;6.75;;;24.40;90.30;;;;;;5092204;28;20016;-78
2022/05/12 07:49:14;;;;;;;9.85;6.63;;;24.50;90.90;;;;;;5092172;28;20079;-77
2022/05/12 07:51:39;;;;;;;7.03;6.43;;;24.70;91.20;;;;;;5091699;28;20067;-77
2022/05/12 07:54:05;;;;;;;8.38;6.00;;;25.00;90.80;;;;;;5092595;28;20066;-79
2022/05/12 07:56:31;;;;;;;7.45;6.28;;;25.10;91.00;;;;;;5092517;28;20032;-78
2022/05/12 07:58:58;;;;;;;10.45;7.00;;;25.20;91.60;;;;;;5092472;28;20031;-77
2022/05/12 08:01:26;;;;;;;8.95;6.22;;;25.40;90.90;;;;;;5091827;28;20043;-78
2022/05/12 08:03:52;;;;;;;9.32;7.20;;;25.50;91.00;;;;;;5091574;28;20020;-77
2022/05/12 08:06:18;;;;;;;9.32;7.03;;;25.60;90.70;;;;;;5092701;28;20482;-77
2022/05/12 08:08:51;;;;;;;10.05;6.32;;;25.70;91.00;;;;;;5092908;28;20016;-77
2022/05/12 08:11:19;;;;;;;12.13;6.65;;;25.80;89.30;;;;;;5091152;28;20031;-81
2022/05/12 08:13:47;;;;;;;7.50;6.65;;;25.90;90.90;;;;;;5092593;28;20035;-78
2022/05/12 08:16:17;;;;;;;13.25;6.25;;;26.10;90.20;;;;;;5092349;28;20036;-77
2022/05/12 08:18:45;;;;;;;7.25;6.43;;;26.30;89.10;;;;;;5092802;28;20073;-78
2022/05/12 08:21:12;;;;;;;7.00;5.72;;;26.40;88.40;;;;;;5092411;28;20031;-83
2022/05/12 08:23:38;;;;;;;6.85;5.82;;;26.60;85.60;;;;;;5091696;28;20028;-80
2022/05/12 08:26:03;;;;;;;6.03;5.40;;;26.70;85.30;;;;;;5092664;28;20489;-78
2022/05/12 08:28:29;;;;;;;9.73;6.40;;;26.80;83.60;;;;;;5092938;28;20471;-78
2022/05/12 08:30:55;;;;;;;8.35;5.63;;;26.90;84.50;;;;;;5091513;28;20066;-78
2022/05/12 08:33:21;;;;;;;7.10;5.03;;;27.00;84.30;;;;;;5091611;28;20115;-80
2022/05/12 08:35:49;;;;;;;5.47;4.93;;;27.10;82.50;;;;;;5091130;28;20041;-79
2022/05/12 08:38:16;;;;;;;6.70;5.07;;;27.40;79.70;;;;;;5092944;28;20024;-79
2022/05/12 08:41:03;;;;;;;11.68;4.80;;;27.50;80.00;;;;;;5092849;28;20020;-79
2022/05/12 08:43:43;;;;;;;10.20;5.95;;;27.60;78.20;;;;;;5092456;28;20031;-80
2022/05/12 08:46:21;;;;;;;4.93;4.35;;;27.70;78.10;;;;;;5092836;28;20456;-84
2022/05/12 08:48:51;;;;;;;6.53;4.75;;;27.80;75.80;;;;;;5091273;28;20063;-79
2022/05/12 08:51:19;;;;;;;4.60;4.00;;;27.90;71.10;;;;;;5092134;28;20051;-77
2022/05/12 08:54:03;;;;;;;4.57;4.18;;;28.00;71.50;;;;;;5092354;28;20031;-77
2022/05/12 08:56:28;;;;;;;4.13;3.75;;;28.20;70.20;;;;;;5092294;28;20032;-77
2022/05/12 08:58:56;;;;;;;4.88;4.13;;;28.30;71.60;;;;;;5091998;28;20475;-77
2022/05/12 09:01:40;;;;;;;3.92;3.45;;;28.40;66.40;;;;;;5091468;28;20024;-82
2022/05/12 09:04:40;;;;;;;4.68;3.10;;;28.40;66.00;;;;;;5094993;28;20041;-79
2022/05/12 09:07:32;;;;;;;3.03;2.72;;;28.50;58.60;;;;;;5096105;28;20027;-77
2022/05/12 09:10:25;;;;;;;3.22;2.80;;;28.60;61.90;;;;;;5096048;28;20420;-77
2022/05/12 09:13:01;;;;;;;4.18;2.22;;;28.60;59.70;;;;;;5096360;28;20088;-81
2022/05/12 09:15:31;;;;;;;2.58;2.38;;;28.70;56.50;;;;;;5096236;28;20028;-77
2022/05/12 09:17:58;;;;;;;2.83;2.20;;;28.80;56.30;;;;;;5095707;28;20031;-78
2022/05/12 09:20:27;;;;;;;4.20;2.15;;;28.90;55.60;;;;;;5095864;28;20099;-77
2022/05/12 09:22:52;;;;;;;3.10;2.40;;;29.00;56.70;;;;;;5095759;28;20028;-76
2022/05/12 09:25:40;;;;;;;4.32;2.38;;;29.10;61.10;;;;;;5095778;28;20031;-76
2022/05/12 09:28:29;;;;;;;6.50;2.20;;;29.00;59.50;;;;;;5095803;28;20020;-77
2022/05/12 09:31:01;;;;;;;4.63;2.15;;;29.10;56.60;;;;;;5094288;28;20024;-77
2022/05/12 09:33:34;;;;;;;1.80;1.70;;;29.10;54.60;;;;;;5095582;28;20112;-77
2022/05/12 09:36:06;;;;;;;2.72;1.77;;;29.20;53.50;;;;;;5094191;28;20036;-77
2022/05/12 09:38:44;;;;;;;2.60;2.00;;;29.40;52.40;;;;;;5095456;28;20443;-78
2022/05/12 09:41:22;;;;;;;3.90;1.70;;;29.60;53.00;;;;;;5095388;28;20085;-77
2022/05/12 09:43:53;;;;;;;8.65;2.50;;;29.70;54.40;;;;;;5095177;28;20486;-77
2022/05/12 09:46:29;;;;;;;2.70;1.88;;;29.90;53.60;;;;;;5093844;28;20024;-77
2022/05/12 09:49:15;;;;;;;4.80;1.73;;;30.00;50.50;;;;;;5095136;28;20027;-77
2022/05/12 09:51:41;;;;;;;3.92;1.65;;;30.00;49.90;;;;;;5094890;28;20051;-75
2022/05/12 09:54:23;;;;;;;2.03;1.92;;;30.00;48.50;;;;;;5094762;28;20024;-76
2022/05/12 09:57:10;;;;;;;2.30;1.75;;;30.00;48.30;;;;;;5094815;28;20028;-77
2022/05/12 09:59:37;;;;;;;2.10;1.77;;;29.70;48.80;;;;;;5094150;28;20027;-75
2022/05/12 10:02:10;;;;;;;2.75;1.83;;;29.50;48.80;;;;;;5095540;28;20024;-76
2022/05/12 10:10:25;;;;;;;2.13;1.50;;;29.50;48.70;;;;;;5095781;28;20085;-77
2022/05/12 10:13:15;;;;;;;1.95;1.80;;;29.80;48.70;;;;;;5094195;28;20027;-76
2022/05/12 10:15:43;;;;;;;2.42;1.70;;;29.90;49.00;;;;;;5093883;28;20031;-78
2022/05/12 10:18:09;;;;;;;2.97;1.60;;;29.90;48.30;;;;;;5095236;28;20173;-77
2022/05/12 10:20:41;;;;;;;3.55;1.88;;;29.90;47.00;;;;;;5095058;28;20107;-79
2022/05/12 10:23:17;;;;;;;5.35;2.08;;;29.80;48.70;;;;;;5093702;28;20375;-75
2022/05/12 10:25:58;;;;;;;3.28;1.40;;;29.90;48.70;;;;;;5095042;28;20035;-80
2022/05/12 10:28:48;;;;;;;2.40;1.73;;;30.10;48.40;;;;;;5094936;28;20024;-76
2022/05/12 10:31:20;;;;;;;2.70;2.22;;;30.30;48.50;;;;;;5093612;28;20075;-77
2022/05/12 10:34:00;;;;;;;5.75;3.30;;;30.40;51.70;;;;;;5094818;28;20024;-77
2022/05/12 10:36:45;;;;;;;8.32;3.03;;;30.40;55.30;;;;;;5094433;28;20028;-77
2022/05/12 10:39:19;;;;;;;5.85;3.40;;;30.20;54.60;;;;;;5094607;28;20082;-76
2022/05/12 10:42:04;;;;;;;3.13;2.72;;;29.90;56.50;;;;;;5094353;28;20501;-74
2022/05/12 10:44:47;;;;;;;4.07;3.22;;;29.80;58.30;;;;;;5094144;28;20114;-76
2022/05/12 10:47:26;;;;;;;4.97;3.15;;;29.90;58.50;;;;;;5093755;28;20016;-75
2022/05/12 10:50:06;;;;;;;5.70;3.40;;;29.90;58.60;;;;;;5093821;28;20117;-75
2022/05/12 10:52:38;;;;;;;3.58;3.28;;;30.20;59.10;;;;;;5094013;28;20606;-75
2022/05/12 10:55:21;;;;;;;4.20;3.25;;;30.30;56.80;;;;;;5093839;28;20094;-78
2022/05/12 10:58:02;;;;;;;4.70;3.15;;;30.40;57.50;;;;;;5093538;28;20050;-77
2022/05/12 11:00:56;;;;;;;5.05;3.70;;;30.40;57.60;;;;;;5094072;28;20499;-77
2022/05/12 11:03:29;;;;;;;4.68;3.42;;;30.30;56.60;;;;;;5095664;28;20044;-88
2022/05/12 11:06:02;;;;;;;3.50;3.17;;;30.30;56.10;;;;;;5095455;28;20027;-88
2022/05/12 11:08:52;;;;;;;5.68;3.33;;;30.40;55.80;;;;;;5095763;28;20482;-89
2022/05/12 11:11:20;;;;;;;3.67;2.88;;;30.60;55.20;;;;;;5095645;28;20100;-88
2022/05/12 11:13:48;;;;;;;5.47;3.00;;;30.60;54.70;;;;;;5095821;28;20083;-89
2022/05/12 11:16:16;;;;;;;5.72;3.08;;;30.50;54.20;;;;;;5095562;28;20036;-85
2022/05/12 11:19:07;;;;;;;3.72;2.83;;;30.30;53.80;;;;;;5095506;28;20031;-82
2022/05/12 11:21:43;;;;;;;7.15;3.17;;;30.00;54.70;;;;;;5095908;28;20536;-89
2022/05/12 11:24:16;;;;;;;3.30;3.08;;;29.70;54.80;;;;;;5095677;28;20099;-88
2022/05/12 11:26:57;;;;;;;3.50;3.20;;;29.60;55.50;;;;;;5094829;28;20032;-84
2022/05/12 11:29:48;;;;;;;5.45;3.10;;;29.40;56.30;;;;;;5095169;28;20099;-87
2022/05/12 11:33:02;;;;;;;4.53;3.30;;;29.30;57.30;;;;;;5094223;28;20464;-77
2022/05/12 11:35:36;;;;;;;5.20;3.75;;;29.10;57.10;;;;;;5065965;28;20639;-78
2022/05/12 11:38:05;;;;;;;10.13;3.58;;;29.10;57.10;;;;;;5092720;28;20020;-77
2022/05/12 11:40:48;;;;;;;3.95;2.97;;;29.10;57.80;;;;;;5092813;28;20046;-77
2022/05/12 11:46:33;;;;;;;7.53;3.95;;;29.10;57.70;;;;;;5092912;28;20116;-77
2022/05/12 11:49:03;;;;;;;4.22;3.00;;;29.10;58.20;;;;;;5039221;28;20047;-79
2022/05/12 11:51:55;;;;;;;3.65;3.22;;;28.90;57.20;;;;;;5092658;28;20055;-77
2022/05/12 11:54:32;;;;;;;5.07;3.10;;;28.90;58.90;;;;;;5092913;28;20028;-79
2022/05/12 11:57:00;;;;;;;3.13;2.80;;;28.80;56.60;;;;;;5092762;28;20540;-78
2022/05/12 11:59:30;;;;;;;4.45;3.20;;;28.70;57.50;;;;;;5093299;28;20024;-81
2022/05/12 12:02:00;;;;;;;7.07;3.67;;;28.70;58.30;;;;;;5093658;28;20528;-77
2022/05/12 12:04:47;;;;;;;4.53;3.42;;;28.80;57.90;;;;;;5092948;28;20015;-77
2022/05/12 12:07:30;;;;;;;7.40;5.18;;;28.90;56.90;;;;;;5092657;28;20487;-78
2022/05/12 12:10:26;;;;;;;9.43;4.53;;;29.00;55.80;;;;;;5091789;28;20026;-77
2022/05/12 12:12:57;;;;;;;5.22;2.97;;;29.00;55.90;;;;;;5092490;28;20028;-78
2022/05/12 12:15:28;;;;;;;4.05;3.35;;;29.00;55.80;;;;;;5092833;28;20027;-78
2022/05/12 12:17:54;;;;;;;4.75;2.85;;;29.00;54.70;;;;;;5093131;28;20027;-82
2022/05/12 12:20:32;;;;;;;7.45;3.38;;;29.00;56.60;;;;;;5093384;28;20024;-79
2022/05/12 12:23:24;;;;;;;4.80;3.00;;;28.90;56.50;;;;;;5093133;28;20085;-82
2022/05/12 12:26:38;;;;;;;3.85;2.30;;;28.80;57.00;;;;;;5091196;28;20038;-80
2022/05/12 12:29:10;;;;;;;5.43;3.45;;;28.70;56.80;;;;;;5079833;28;20036;-89
2022/05/12 12:31:40;;;;;;;6.53;3.40;;;28.60;58.20;;;;;;5093213;28;20480;-88
2022/05/12 12:34:41;;;;;;;4.45;2.85;;;28.50;59.60;;;;;;5094074;28;20024;-87
2022/05/12 12:37:09;;;;;;;3.20;2.75;;;28.40;58.40;;;;;;5093767;28;20097;-89
2022/05/12 12:39:40;;;;;;;5.07;3.28;;;28.40;59.60;;;;;;5093090;28;20035;-88
2022/05/12 12:42:30;;;;;;;5.53;3.40;;;28.30;60.30;;;;;;5094297;28;20494;-90
2022/05/12 12:45:18;;;;;;;3.03;2.80;;;28.20;61.70;;;;;;5094186;28;20020;-88
2022/05/12 12:47:47;;;;;;;4.30;2.72;;;28.10;60.50;;;;;;5094354;28;20016;-91
2022/05/12 12:50:28;;;;;;;5.40;3.20;;;28.10;60.90;;;;;;5094117;28;20097;-90
2022/05/12 12:52:56;;;;;;;3.47;2.95;;;28.00;61.80;;;;;;5094179;28;20106;-91
2022/05/12 12:58:37;;;;;;;3.28;2.90;;;28.00;62.80;;;;;;5093839;28;20046;-88
2022/05/12 13:01:11;;;;;;;4.93;3.33;;;27.90;65.30;;;;;;5093519;28;20423;-83
2022/05/12 13:03:38;;;;;;;3.88;3.50;;;27.80;69.20;;;;;;5093604;28;20024;-78
2022/05/12 13:06:17;;;;;;;4.57;3.22;;;27.60;71.20;;;;;;5093175;28;20024;-90
2022/05/12 13:08:43;;;;;;;4.68;2.90;;;27.40;73.00;;;;;;5092565;28;20040;-88
2022/05/12 13:11:19;;;;;;;3.83;3.35;;;27.10;68.10;;;;;;5094226;28;20107;-89
2022/05/12 13:13:52;;;;;;;6.18;3.08;;;26.90;69.50;;;;;;5091793;28;20032;-78
2022/05/12 13:16:24;;;;;;;3.92;2.83;;;26.60;72.50;;;;;;5091746;28;20028;-77
2022/05/12 13:18:53;;;;;;;4.53;3.60;;;26.30;73.40;;;;;;5091819;28;20013;-77
2022/05/12 13:21:45;;;;;;;4.97;3.35;;;26.00;74.00;;;;;;5090599;28;20483;-78